Time;durP1;ratioP1;P1;durP2;ratioP2;P2;SDS_P1;SDS_P2;PMS_P1;PMS_P2;Temp;Humidity;BMP_temperature;BMP_pressure;BME280_temperature;BME280_humidity;BME280_pressure;Samples;Min_cycle;Max_cycle;Signal;HPM_P1;HPM_P2
2021/12/28 00:00:27;;;;;;;17.25;14.27;;;2.90;99.90;;;;;;5032927;28;20219;-58
2021/12/28 00:02:56;;;;;;;17.45;14.60;;;2.90;99.90;;;;;;5033542;28;20210;-58
2021/12/28 00:05:25;;;;;;;16.83;13.30;;;3.00;99.90;;;;;;5033096;28;20221;-56
2021/12/28 00:07:52;;;;;;;18.38;12.95;;;3.10;99.90;;;;;;5033294;28;20214;-57
2021/12/28 00:10:20;;;;;;;18.85;13.82;;;3.10;99.90;;;;;;5033774;28;20229;-57
2021/12/28 00:12:48;;;;;;;16.05;13.35;;;3.20;99.90;;;;;;5034009;28;20224;-58
2021/12/28 00:15:32;;;;;;;18.45;14.40;;;3.20;99.90;;;;;;5032887;28;20218;-57
2021/12/28 00:18:02;;;;;;;16.52;13.35;;;3.30;99.90;;;;;;5032891;28;20190;-58
2021/12/28 00:20:30;;;;;;;16.67;12.82;;;3.30;99.90;;;;;;5032881;28;20222;-58
2021/12/28 00:22:58;;;;;;;18.80;13.80;;;3.30;99.90;;;;;;5032892;28;20199;-58
2021/12/28 00:25:25;;;;;;;19.52;14.15;;;3.40;99.90;;;;;;5037113;28;20210;-56
2021/12/28 00:27:53;;;;;;;19.27;14.63;;;3.40;99.90;;;;;;5037065;28;20202;-58
2021/12/28 00:30:22;;;;;;;15.68;13.02;;;3.40;99.90;;;;;;5036895;28;20262;-58
2021/12/28 00:32:52;;;;;;;17.95;13.65;;;3.40;99.90;;;;;;5037196;28;20213;-57
2021/12/28 00:35:20;;;;;;;15.77;13.30;;;3.50;99.90;;;;;;5037018;28;20249;-56
2021/12/28 00:37:47;;;;;;;18.95;13.43;;;3.50;99.90;;;;;;5036935;28;20207;-56
2021/12/28 00:40:15;;;;;;;16.25;13.07;;;3.50;99.90;;;;;;5036936;28;20632;-56
2021/12/28 00:42:42;;;;;;;18.60;14.30;;;3.50;99.90;;;;;;5036545;28;20199;-56
2021/12/28 00:45:10;;;;;;;15.00;12.52;;;3.50;99.90;;;;;;5036641;28;20209;-58
2021/12/28 00:47:39;;;;;;;14.18;12.18;;;3.50;99.90;;;;;;5037037;28;20572;-56
2021/12/28 00:50:08;;;;;;;15.50;13.43;;;3.50;99.90;;;;;;5037175;28;20222;-57
2021/12/28 00:52:35;;;;;;;17.05;13.95;;;3.50;99.90;;;;;;5036453;28;20202;-57
2021/12/28 00:55:03;;;;;;;15.48;13.00;;;3.50;99.90;;;;;;5036785;28;20250;-59
2021/12/28 00:57:30;;;;;;;16.30;13.07;;;3.50;99.90;;;;;;5036706;28;20206;-56
2021/12/28 00:59:57;;;;;;;15.80;12.68;;;3.50;99.90;;;;;;5036566;28;20238;-57
2021/12/28 01:02:24;;;;;;;16.73;12.63;;;3.50;99.90;;;;;;5036304;28;20671;-57
2021/12/28 01:04:53;;;;;;;15.95;11.93;;;3.50;99.90;;;;;;5036304;28;20576;-57
2021/12/28 01:07:20;;;;;;;16.38;11.90;;;3.50;99.90;;;;;;5036544;28;20206;-57
2021/12/28 01:09:47;;;;;;;16.98;12.65;;;3.50;99.90;;;;;;5036518;28;20202;-57
2021/12/28 01:12:14;;;;;;;14.65;12.85;;;3.50;99.90;;;;;;5036384;28;20590;-57
2021/12/28 01:14:41;;;;;;;17.10;13.02;;;3.60;99.90;;;;;;5036000;28;20218;-58
2021/12/28 01:17:08;;;;;;;16.42;12.55;;;3.60;99.90;;;;;;5035979;28;20213;-58
2021/12/28 01:19:35;;;;;;;16.33;14.50;;;3.60;99.90;;;;;;5036248;28;20206;-58
2021/12/28 01:22:05;;;;;;;14.65;13.05;;;3.60;99.90;;;;;;5036294;28;20207;-57
2021/12/28 01:24:33;;;;;;;15.48;13.00;;;3.60;99.90;;;;;;5036152;28;20186;-57
2021/12/28 01:27:01;;;;;;;19.88;14.02;;;3.70;99.90;;;;;;5036052;28;20206;-57
2021/12/28 01:29:28;;;;;;;14.93;12.65;;;3.70;99.90;;;;;;5036202;28;20558;-58
2021/12/28 01:31:55;;;;;;;14.98;13.30;;;3.70;99.90;;;;;;5035736;28;20210;-58
2021/12/28 01:34:22;;;;;;;15.73;12.77;;;3.70;99.90;;;;;;5035870;28;20226;-57
2021/12/28 01:36:49;;;;;;;16.42;13.93;;;3.80;99.90;;;;;;5035264;28;20218;-57
2021/12/28 01:39:18;;;;;;;16.35;13.40;;;3.80;99.90;;;;;;5036050;28;20206;-58
2021/12/28 01:41:45;;;;;;;15.05;12.48;;;3.80;99.90;;;;;;5035915;28;20245;-57
2021/12/28 01:44:13;;;;;;;14.25;12.70;;;3.80;99.90;;;;;;5035571;28;20201;-57
2021/12/28 01:46:40;;;;;;;17.13;14.00;;;3.80;99.90;;;;;;5035364;28;20198;-56
2021/12/28 01:49:09;;;;;;;16.58;13.40;;;3.80;99.90;;;;;;5035818;28;20202;-57
2021/12/28 01:51:36;;;;;;;16.77;12.77;;;3.80;99.90;;;;;;5035403;28;20229;-57
2021/12/28 01:54:06;;;;;;;15.55;12.73;;;3.80;99.90;;;;;;5035231;28;20221;-58
2021/12/28 01:56:38;;;;;;;16.23;13.05;;;3.90;99.90;;;;;;5035657;28;20183;-57
2021/12/28 01:59:07;;;;;;;15.68;12.40;;;3.90;99.90;;;;;;5035613;28;20278;-59
2021/12/28 02:01:34;;;;;;;15.68;12.65;;;3.90;99.90;;;;;;5035403;28;20233;-59
2021/12/28 02:04:02;;;;;;;15.00;12.48;;;3.90;99.90;;;;;;5035462;28;20204;-57
2021/12/28 02:06:30;;;;;;;15.95;13.50;;;4.00;99.90;;;;;;5035331;28;20628;-57
2021/12/28 02:08:57;;;;;;;16.83;13.20;;;4.00;99.90;;;;;;5035031;28;20202;-58
2021/12/28 02:11:24;;;;;;;16.88;11.88;;;4.00;99.90;;;;;;5035249;28;20222;-58
2021/12/28 02:13:53;;;;;;;19.45;14.57;;;4.00;99.90;;;;;;5034843;28;20206;-57
2021/12/28 02:16:21;;;;;;;17.17;13.45;;;4.00;99.90;;;;;;5034949;28;20573;-57
2021/12/28 02:18:48;;;;;;;17.70;13.98;;;4.10;99.90;;;;;;5035078;28;20199;-59
2021/12/28 02:21:16;;;;;;;14.85;12.95;;;4.10;99.90;;;;;;5034998;28;20222;-57
2021/12/28 02:23:44;;;;;;;15.43;12.13;;;4.20;99.90;;;;;;5034734;28;20202;-58
2021/12/28 02:26:11;;;;;;;15.93;13.35;;;4.30;99.90;;;;;;5034663;28;20801;-57
2021/12/28 02:28:38;;;;;;;15.50;11.65;;;4.30;99.90;;;;;;5034808;28;20206;-58
2021/12/28 02:31:06;;;;;;;14.88;12.18;;;4.30;99.90;;;;;;5034349;28;20226;-59
2021/12/28 02:33:36;;;;;;;14.93;12.13;;;4.40;99.90;;;;;;5034512;28;20206;-58
2021/12/28 02:36:05;;;;;;;16.60;12.65;;;4.40;99.90;;;;;;5034748;28;20222;-57
2021/12/28 02:38:34;;;;;;;15.32;12.05;;;4.50;99.90;;;;;;5035222;28;20210;-57
2021/12/28 02:41:01;;;;;;;14.13;12.10;;;4.50;99.90;;;;;;5034283;28;20222;-57
2021/12/28 02:43:29;;;;;;;13.13;10.80;;;4.50;99.90;;;;;;5034637;28;20564;-58
2021/12/28 02:45:58;;;;;;;13.15;11.60;;;4.50;99.90;;;;;;5034269;28;20206;-57
2021/12/28 02:48:27;;;;;;;14.25;12.75;;;4.60;99.90;;;;;;5033491;28;20225;-57
2021/12/28 02:50:57;;;;;;;12.57;10.57;;;4.60;99.90;;;;;;5034082;28;20227;-57
2021/12/28 02:53:25;;;;;;;13.73;12.32;;;4.60;99.90;;;;;;5034163;28;20205;-58
2021/12/28 02:55:54;;;;;;;15.13;11.45;;;4.70;99.90;;;;;;5034267;28;20222;-58
2021/12/28 02:58:32;;;;;;;14.07;11.80;;;4.70;99.90;;;;;;5034827;28;20233;-58
2021/12/28 03:01:03;;;;;;;13.48;12.02;;;4.70;99.90;;;;;;5033946;28;20245;-57
2021/12/28 03:03:32;;;;;;;13.20;10.90;;;4.80;99.90;;;;;;5034350;28;20183;-57
2021/12/28 03:06:02;;;;;;;14.13;11.25;;;4.80;99.90;;;;;;5034165;28;20205;-57
2021/12/28 03:08:30;;;;;;;14.15;11.15;;;4.80;99.90;;;;;;5034063;28;20206;-58
2021/12/28 03:11:01;;;;;;;13.20;11.10;;;4.80;99.90;;;;;;5033725;28;20309;-58
2021/12/28 03:13:33;;;;;;;12.90;11.55;;;4.80;99.90;;;;;;5034112;28;20191;-57
2021/12/28 03:16:00;;;;;;;13.75;11.30;;;4.80;99.90;;;;;;5033897;28;20206;-58
2021/12/28 03:18:27;;;;;;;13.25;11.70;;;4.80;99.90;;;;;;5033664;28;20202;-57
2021/12/28 03:20:55;;;;;;;11.88;10.65;;;4.80;99.90;;;;;;5033881;28;20223;-57
2021/12/28 03:23:24;;;;;;;15.15;11.15;;;4.80;99.90;;;;;;5034055;28;20202;-59
2021/12/28 03:25:51;;;;;;;14.75;11.13;;;4.90;99.90;;;;;;5033798;28;20202;-58
2021/12/28 03:28:21;;;;;;;14.40;11.70;;;4.80;99.90;;;;;;5033800;28;20198;-58
2021/12/28 03:30:49;;;;;;;12.30;11.00;;;4.90;99.90;;;;;;5033253;28;20234;-58
2021/12/28 03:33:17;;;;;;;15.77;11.32;;;4.90;99.90;;;;;;5033746;28;20204;-58
2021/12/28 03:35:44;;;;;;;14.45;12.27;;;4.90;99.90;;;;;;5033626;28;20221;-59
2021/12/28 03:38:11;;;;;;;13.60;11.90;;;4.90;99.90;;;;;;5033619;28;20198;-58
2021/12/28 03:40:38;;;;;;;14.15;11.98;;;4.90;99.90;;;;;;5033301;28;20226;-58
2021/12/28 03:43:06;;;;;;;11.40;10.20;;;4.90;99.90;;;;;;5033297;28;20696;-58
2021/12/28 03:45:34;;;;;;;13.20;11.75;;;4.90;99.90;;;;;;5033219;28;20198;-58
2021/12/28 03:48:04;;;;;;;12.45;10.35;;;4.90;99.90;;;;;;5033578;28;20206;-58
2021/12/28 03:50:31;;;;;;;12.77;11.48;;;4.90;99.90;;;;;;5033371;28;20671;-58
2021/12/28 03:52:58;;;;;;;13.93;11.13;;;4.90;99.90;;;;;;5033481;28;20206;-58
2021/12/28 03:55:27;;;;;;;13.13;11.18;;;4.90;99.90;;;;;;5033392;28;20214;-58
2021/12/28 03:57:56;;;;;;;12.38;10.98;;;4.90;99.90;;;;;;5033308;28;20210;-59
2021/12/28 04:00:24;;;;;;;14.02;12.00;;;4.90;99.90;;;;;;5032939;28;20219;-59
2021/12/28 04:02:53;;;;;;;15.55;11.32;;;4.90;99.90;;;;;;5032909;28;20209;-59
2021/12/28 04:05:20;;;;;;;13.25;11.32;;;4.90;99.90;;;;;;5033219;28;20213;-58
2021/12/28 04:09:07;;;;;;;12.43;11.13;;;4.90;99.90;;;;;;5152927;27;20537;-59
2021/12/28 04:11:34;;;;;;;12.25;10.93;;;4.90;99.90;;;;;;5170676;27;20217;-58
2021/12/28 04:14:03;;;;;;;11.27;10.18;;;5.00;99.90;;;;;;5172800;27;20201;-58
2021/12/28 04:16:31;;;;;;;12.73;10.70;;;5.00;99.90;;;;;;5173035;27;20201;-59
2021/12/28 04:18:59;;;;;;;12.05;10.57;;;5.00;99.90;;;;;;5172775;27;20201;-57
2021/12/28 04:21:26;;;;;;;12.15;10.80;;;5.00;99.90;;;;;;5174112;27;20218;-55
2021/12/28 04:23:53;;;;;;;12.68;10.10;;;5.00;99.90;;;;;;5172663;27;20202;-56
2021/12/28 04:26:22;;;;;;;12.55;10.57;;;5.00;99.90;;;;;;5173081;27;20202;-55
2021/12/28 04:28:49;;;;;;;12.77;10.52;;;5.10;99.90;;;;;;5172809;27;20216;-56
2021/12/28 04:31:16;;;;;;;12.80;10.60;;;5.10;99.90;;;;;;5172738;27;20229;-56
2021/12/28 04:33:44;;;;;;;10.85;9.63;;;5.10;99.90;;;;;;5172477;27;20194;-56
2021/12/28 04:36:13;;;;;;;11.45;9.98;;;5.10;99.90;;;;;;5172833;27;20198;-56
2021/12/28 04:38:42;;;;;;;11.70;10.43;;;5.10;99.90;;;;;;5172526;27;20687;-56
2021/12/28 04:41:10;;;;;;;10.85;9.73;;;5.20;99.90;;;;;;5172419;27;20222;-54
2021/12/28 04:43:40;;;;;;;10.63;9.50;;;5.20;99.90;;;;;;5173127;27;20197;-56
2021/12/28 04:46:07;;;;;;;13.20;10.85;;;5.20;99.90;;;;;;5173597;27;20209;-56
2021/12/28 04:48:35;;;;;;;10.35;9.35;;;5.20;99.90;;;;;;5172923;27;20582;-56
2021/12/28 04:51:02;;;;;;;12.50;10.35;;;5.20;99.90;;;;;;5172171;27;20225;-55
2021/12/28 04:53:30;;;;;;;11.90;10.70;;;5.20;99.90;;;;;;5172089;27;20701;-55
2021/12/28 04:55:57;;;;;;;13.25;10.13;;;5.20;99.90;;;;;;5173157;27;20589;-56
2021/12/28 04:58:24;;;;;;;10.93;9.27;;;5.30;99.90;;;;;;5172114;27;20665;-56
2021/12/28 05:00:54;;;;;;;13.02;11.30;;;5.30;99.90;;;;;;5172104;27;20218;-55
2021/12/28 05:03:22;;;;;;;11.15;9.25;;;5.30;99.90;;;;;;5172537;27;20204;-56
2021/12/28 05:05:51;;;;;;;11.18;9.98;;;5.30;99.90;;;;;;5172842;27;20197;-56
2021/12/28 05:08:20;;;;;;;12.15;10.32;;;5.30;99.90;;;;;;5172503;27;20257;-56
2021/12/28 05:10:48;;;;;;;12.25;10.57;;;5.30;99.90;;;;;;5172322;27;20221;-56
2021/12/28 05:13:15;;;;;;;12.27;10.35;;;5.30;99.90;;;;;;5172257;27;20228;-56
2021/12/28 05:15:44;;;;;;;11.75;10.55;;;5.30;99.90;;;;;;5172141;27;20198;-55
2021/12/28 05:18:14;;;;;;;12.63;10.25;;;5.30;99.90;;;;;;5171452;27;20263;-56
2021/12/28 05:20:41;;;;;;;11.85;10.50;;;5.30;99.90;;;;;;5157923;27;20217;-57
2021/12/28 05:23:09;;;;;;;11.70;10.50;;;5.30;99.90;;;;;;5158159;27;20225;-56
2021/12/28 05:25:37;;;;;;;15.63;10.63;;;5.40;99.90;;;;;;5158481;27;20202;-56
2021/12/28 05:28:05;;;;;;;11.98;10.70;;;5.30;99.90;;;;;;5158097;27;20214;-56
2021/12/28 05:30:32;;;;;;;12.07;10.88;;;5.40;99.90;;;;;;5157840;27;20702;-56
2021/12/28 05:33:00;;;;;;;12.55;11.25;;;5.40;99.90;;;;;;5158186;27;20202;-56
2021/12/28 05:35:28;;;;;;;13.00;10.85;;;5.40;99.90;;;;;;5157812;27;20666;-56
2021/12/28 05:37:55;;;;;;;12.23;10.95;;;5.40;99.90;;;;;;5157581;27;20201;-56
2021/12/28 05:40:22;;;;;;;11.23;9.55;;;5.40;99.90;;;;;;5157945;27;20222;-57
2021/12/28 05:42:50;;;;;;;14.10;11.88;;;5.40;99.90;;;;;;5157651;27;20202;-57
2021/12/28 05:45:17;;;;;;;12.05;10.68;;;5.50;99.90;;;;;;5158152;27;20536;-56
2021/12/28 05:47:44;;;;;;;12.57;10.75;;;5.50;99.90;;;;;;5157170;27;20705;-57
2021/12/28 05:50:12;;;;;;;15.57;10.65;;;5.50;99.90;;;;;;5157178;27;20225;-57
2021/12/28 05:52:41;;;;;;;12.63;11.15;;;5.50;99.90;;;;;;5157270;27;20194;-56
2021/12/28 05:55:09;;;;;;;13.40;10.85;;;5.50;99.90;;;;;;5157884;27;20210;-56
2021/12/28 05:57:36;;;;;;;14.15;11.90;;;5.50;99.90;;;;;;5157944;27;20198;-56
2021/12/28 06:00:05;;;;;;;13.27;11.80;;;5.50;99.90;;;;;;5157787;27;20725;-57
2021/12/28 06:02:32;;;;;;;12.23;10.52;;;5.50;99.90;;;;;;5158381;27;20195;-57
2021/12/28 06:04:59;;;;;;;13.73;11.80;;;5.50;99.90;;;;;;5157523;27;20194;-56
2021/12/28 06:07:27;;;;;;;12.98;10.40;;;5.50;99.90;;;;;;5157479;27;20202;-56
2021/12/28 06:09:56;;;;;;;15.38;11.63;;;5.50;99.90;;;;;;5157241;27;20257;-56
2021/12/28 06:12:25;;;;;;;13.43;10.82;;;5.50;99.90;;;;;;5156477;27;20688;-55
2021/12/28 06:14:53;;;;;;;14.40;10.60;;;5.50;99.90;;;;;;5156925;27;20198;-56
2021/12/28 06:17:21;;;;;;;13.57;10.40;;;5.50;99.90;;;;;;5156551;27;20603;-56
2021/12/28 06:19:48;;;;;;;11.82;10.20;;;5.50;99.90;;;;;;5156673;27;20316;-57
2021/12/28 06:22:15;;;;;;;17.30;11.27;;;5.40;99.90;;;;;;5156505;27;20194;-54
2021/12/28 06:24:43;;;;;;;12.73;10.50;;;5.40;99.90;;;;;;5156524;27;20197;-55
2021/12/28 06:27:11;;;;;;;14.48;10.27;;;5.40;99.90;;;;;;5156619;27;20206;-55
2021/12/28 06:29:38;;;;;;;14.48;11.15;;;5.40;99.90;;;;;;5156460;27;20222;-55
2021/12/28 06:32:06;;;;;;;17.02;11.80;;;5.40;99.90;;;;;;5155505;27;20212;-54
2021/12/28 06:34:34;;;;;;;13.88;11.23;;;5.30;99.90;;;;;;5156078;27;20213;-55
2021/12/28 06:37:01;;;;;;;13.82;11.27;;;5.30;99.90;;;;;;5156491;27;20206;-56
2021/12/28 06:39:28;;;;;;;12.85;10.27;;;5.20;99.90;;;;;;5156669;27;20198;-56
2021/12/28 06:41:55;;;;;;;15.38;10.85;;;5.20;99.90;;;;;;5156431;27;20207;-56
2021/12/28 06:44:24;;;;;;;14.50;10.77;;;5.20;99.90;;;;;;5156216;27;20203;-55
2021/12/28 06:46:51;;;;;;;14.20;11.13;;;5.10;99.90;;;;;;5155910;27;20198;-55
2021/12/28 06:49:18;;;;;;;13.95;10.93;;;5.10;99.90;;;;;;5155749;27;20274;-56
2021/12/28 06:51:46;;;;;;;16.08;10.85;;;5.00;99.90;;;;;;5156017;27;20222;-55
2021/12/28 06:54:14;;;;;;;18.88;11.98;;;5.00;99.90;;;;;;5156122;27;20197;-56
2021/12/28 06:56:41;;;;;;;16.50;12.55;;;5.00;99.90;;;;;;5155962;27;20685;-56
2021/12/28 06:59:08;;;;;;;18.08;11.93;;;5.00;99.90;;;;;;5156263;27;20198;-56
2021/12/28 07:01:37;;;;;;;16.83;12.13;;;5.00;99.90;;;;;;5156119;27;20225;-56
2021/12/28 07:04:04;;;;;;;18.38;11.57;;;5.00;99.90;;;;;;5156919;27;20198;-56
2021/12/28 07:06:31;;;;;;;15.15;12.00;;;5.00;99.90;;;;;;5157349;27;20610;-56
2021/12/28 07:08:58;;;;;;;14.10;11.70;;;5.00;99.90;;;;;;5156806;27;20252;-56
2021/12/28 07:11:25;;;;;;;20.00;11.80;;;5.00;99.90;;;;;;5156242;27;20586;-56
2021/12/28 07:13:52;;;;;;;19.52;12.45;;;5.00;99.90;;;;;;5155609;27;20198;-57
2021/12/28 07:16:20;;;;;;;16.23;12.38;;;5.00;99.90;;;;;;5155846;27;20666;-56
2021/12/28 07:18:48;;;;;;;16.10;12.57;;;5.00;99.90;;;;;;5155859;27;20323;-57
2021/12/28 07:21:15;;;;;;;17.27;10.90;;;5.00;99.90;;;;;;5155749;27;20245;-56
2021/12/28 07:23:42;;;;;;;18.23;12.30;;;5.00;99.90;;;;;;5155783;27;20665;-57
2021/12/28 07:26:09;;;;;;;17.55;12.18;;;5.00;99.90;;;;;;5155444;27;20194;-56
2021/12/28 07:28:36;;;;;;;16.27;11.48;;;5.00;99.90;;;;;;5156189;27;20210;-56
2021/12/28 07:31:04;;;;;;;16.77;12.02;;;5.00;99.90;;;;;;5155741;27;20232;-57
2021/12/28 07:33:31;;;;;;;17.92;13.52;;;5.00;99.90;;;;;;5155824;27;20662;-56
2021/12/28 07:35:59;;;;;;;22.85;12.60;;;5.00;99.90;;;;;;5155548;27;20700;-57
2021/12/28 07:38:27;;;;;;;19.05;12.20;;;5.10;99.90;;;;;;5156004;27;20202;-55
2021/12/28 07:40:54;;;;;;;16.25;12.00;;;5.10;99.90;;;;;;5156072;27;20218;-56
2021/12/28 07:43:21;;;;;;;19.58;11.68;;;5.10;99.90;;;;;;5155583;27;20205;-56
2021/12/28 07:45:48;;;;;;;21.90;12.40;;;5.20;99.90;;;;;;5155750;27;20731;-56
2021/12/28 07:48:15;;;;;;;15.65;12.77;;;5.30;99.90;;;;;;5155679;27;20221;-56
2021/12/28 07:50:42;;;;;;;20.45;14.23;;;5.30;99.90;;;;;;5155363;27;20223;-57
2021/12/28 07:53:11;;;;;;;16.35;12.25;;;5.40;99.90;;;;;;5154984;27;20209;-56
2021/12/28 07:55:38;;;;;;;19.27;12.02;;;5.40;99.90;;;;;;5155091;27;20199;-55
2021/12/28 07:58:05;;;;;;;19.83;12.93;;;5.40;99.90;;;;;;5154874;27;20194;-56
2021/12/28 08:00:33;;;;;;;18.85;11.68;;;5.50;99.90;;;;;;5155212;27;20235;-57
2021/12/28 08:03:03;;;;;;;20.00;11.70;;;5.50;99.90;;;;;;5155364;27;20646;-56
2021/12/28 08:05:31;;;;;;;19.38;10.85;;;5.50;99.90;;;;;;5155165;27;20218;-56
2021/12/28 08:07:58;;;;;;;13.23;10.80;;;5.60;99.90;;;;;;5154763;27;20673;-55
2021/12/28 08:10:27;;;;;;;16.58;10.80;;;5.60;99.90;;;;;;5154440;27;20218;-56
2021/12/28 08:12:56;;;;;;;24.17;11.73;;;5.60;99.90;;;;;;5154512;27;20201;-57
2021/12/28 08:15:24;;;;;;;12.75;11.20;;;5.70;99.90;;;;;;5154836;27;20198;-57
2021/12/28 08:17:52;;;;;;;15.75;10.35;;;5.70;99.90;;;;;;5154446;27;20684;-56
2021/12/28 08:20:20;;;;;;;22.38;11.68;;;5.70;99.90;;;;;;5157022;27;20232;-56
2021/12/28 08:22:49;;;;;;;16.48;11.55;;;5.70;99.90;;;;;;5159334;27;20213;-57
2021/12/28 08:25:18;;;;;;;11.88;9.32;;;5.70;99.90;;;;;;5158944;27;20209;-57
2021/12/28 08:27:47;;;;;;;17.38;11.32;;;5.70;99.90;;;;;;5159290;27;20205;-57
2021/12/28 08:30:17;;;;;;;19.50;10.75;;;5.70;99.90;;;;;;5159215;27;20217;-57
2021/12/28 08:32:44;;;;;;;15.93;10.95;;;5.70;99.90;;;;;;5158015;27;20202;-58
2021/12/28 08:35:13;;;;;;;18.98;10.93;;;5.70;99.90;;;;;;5158970;27;20324;-57
2021/12/28 08:37:41;;;;;;;18.42;10.77;;;5.70;99.90;;;;;;5157726;27;20202;-56
2021/12/28 08:40:10;;;;;;;19.40;9.70;;;5.70;99.90;;;;;;5160515;27;20218;-57
2021/12/28 08:42:37;;;;;;;16.98;12.25;;;5.70;99.90;;;;;;5160397;27;20198;-56
2021/12/28 08:45:07;;;;;;;20.25;10.48;;;5.80;99.90;;;;;;5160781;27;20209;-56
2021/12/28 08:47:35;;;;;;;14.48;10.10;;;5.80;99.90;;;;;;5157014;27;20202;-56
2021/12/28 08:50:02;;;;;;;14.88;10.48;;;5.80;99.90;;;;;;5155002;27;20218;-56
2021/12/28 08:52:29;;;;;;;16.33;10.85;;;5.90;99.90;;;;;;5154873;27;20203;-57
2021/12/28 08:54:56;;;;;;;12.18;9.60;;;5.90;99.90;;;;;;5156938;27;20194;-57
2021/12/28 08:57:23;;;;;;;18.23;10.70;;;5.90;99.90;;;;;;5159806;27;20246;-56
2021/12/28 08:59:50;;;;;;;14.93;9.05;;;5.90;99.90;;;;;;5157900;27;20686;-56
2021/12/28 09:02:19;;;;;;;14.95;10.77;;;6.00;99.90;;;;;;5158781;27;20201;-57
2021/12/28 09:04:46;;;;;;;13.65;8.75;;;6.10;99.90;;;;;;5158939;27;20222;-56
2021/12/28 09:07:14;;;;;;;14.48;9.18;;;6.10;99.90;;;;;;5158157;27;20214;-57
2021/12/28 09:09:41;;;;;;;12.43;7.85;;;6.20;99.90;;;;;;5162361;27;20207;-55
2021/12/28 09:12:09;;;;;;;11.27;8.70;;;6.30;99.90;;;;;;5165748;27;20206;-56
2021/12/28 09:14:36;;;;;;;13.57;9.50;;;6.50;99.90;;;;;;5169402;27;20205;-56
2021/12/28 09:17:04;;;;;;;12.27;8.20;;;6.50;99.90;;;;;;5164633;27;20592;-55
2021/12/28 09:19:33;;;;;;;13.23;8.05;;;6.50;99.90;;;;;;5159608;27;20198;-56
2021/12/28 09:22:00;;;;;;;11.93;8.38;;;6.60;99.90;;;;;;5159698;27;20229;-56
2021/12/28 09:24:27;;;;;;;15.75;8.50;;;6.60;99.90;;;;;;5159857;27;20194;-56
2021/12/28 09:26:54;;;;;;;15.25;9.07;;;6.60;99.90;;;;;;5159046;27;20194;-56
2021/12/28 09:29:21;;;;;;;14.13;7.68;;;6.60;99.90;;;;;;5159128;27;20222;-58
2021/12/28 09:31:48;;;;;;;18.40;9.10;;;6.60;99.90;;;;;;5158225;27;20676;-56
2021/12/28 09:34:16;;;;;;;14.68;8.13;;;6.50;99.90;;;;;;5157793;27;20202;-58
2021/12/28 09:36:45;;;;;;;10.82;7.65;;;6.60;99.90;;;;;;5159313;27;20519;-55
2021/12/28 09:39:12;;;;;;;13.40;8.50;;;6.70;99.90;;;;;;5157765;27;20190;-55
2021/12/28 09:41:39;;;;;;;11.35;7.38;;;6.70;99.90;;;;;;5158194;27;20242;-57
2021/12/28 09:44:06;;;;;;;11.48;7.03;;;6.80;99.90;;;;;;5157422;27;20213;-56
2021/12/28 09:46:33;;;;;;;10.88;7.50;;;6.90;99.90;;;;;;5157606;27;20199;-54
2021/12/28 09:49:01;;;;;;;11.10;7.88;;;7.00;99.90;;;;;;5157437;27;20211;-55
2021/12/28 09:51:28;;;;;;;11.88;7.53;;;7.10;99.90;;;;;;5157194;27;20239;-56
2021/12/28 09:53:58;;;;;;;10.65;7.97;;;7.10;99.90;;;;;;5157294;27;20202;-55
2021/12/28 09:56:25;;;;;;;10.38;6.57;;;7.20;99.90;;;;;;5157647;27;20199;-57
2021/12/28 09:58:52;;;;;;;12.30;8.00;;;7.20;99.90;;;;;;5157371;27;20194;-55
2021/12/28 10:01:20;;;;;;;10.25;7.30;;;7.20;99.90;;;;;;5157742;27;20229;-55
2021/12/28 10:03:47;;;;;;;10.75;7.38;;;7.20;99.90;;;;;;5158048;27;20552;-56
2021/12/28 10:06:20;;;;;;;16.17;8.25;;;7.10;99.90;;;;;;5157491;27;20606;-56
2021/12/28 10:08:47;;;;;;;17.40;7.20;;;7.10;99.90;;;;;;5158046;27;20205;-56
2021/12/28 10:11:31;;;;;;;11.70;6.68;;;7.00;99.90;;;;;;5157733;27;20214;-57
2021/12/28 10:14:12;;;;;;;8.80;6.68;;;7.00;99.90;;;;;;5157975;27;20642;-55
2021/12/28 10:16:49;;;;;;;13.43;8.40;;;7.00;99.90;;;;;;5158158;27;20262;-56
2021/12/28 10:20:02;;;;;;;11.73;6.85;;;7.00;99.90;;;;;;5157517;27;20236;-57
2021/12/28 10:22:32;;;;;;;10.45;6.65;;;7.10;99.90;;;;;;5091292;28;20200;-57
2021/12/28 10:25:02;;;;;;;10.70;6.93;;;7.10;99.90;;;;;;5150251;27;20206;-56
2021/12/28 10:30:08;;;;;;;9.80;6.15;;;7.40;99.90;;;;;;5135464;22;20227;-55
2021/12/28 10:32:36;;;;;;;8.48;6.15;;;7.50;99.90;;;;;;5115513;28;20221;-55
2021/12/28 10:35:07;;;;;;;10.13;5.80;;;7.60;99.90;;;;;;5114752;28;20200;-54
2021/12/28 10:37:36;;;;;;;12.80;5.85;;;7.70;99.90;;;;;;5114753;28;20199;-53
2021/12/28 10:40:06;;;;;;;9.65;5.88;;;7.70;99.90;;;;;;5114729;28;20709;-54
2021/12/28 10:42:49;;;;;;;9.55;5.50;;;7.70;99.90;;;;;;5114533;28;20712;-54
2021/12/28 10:45:20;;;;;;;8.43;5.20;;;7.70;99.90;;;;;;5114505;28;20198;-55
2021/12/28 10:47:48;;;;;;;7.13;4.47;;;7.80;99.90;;;;;;5114336;28;20215;-56
2021/12/28 10:50:31;;;;;;;9.82;5.30;;;7.80;99.90;;;;;;5114731;28;20679;-54
2021/12/28 10:53:11;;;;;;;7.22;5.55;;;7.90;99.90;;;;;;5114954;28;20539;-53
2021/12/28 10:55:39;;;;;;;8.55;5.55;;;7.90;99.90;;;;;;5114219;28;20192;-54
2021/12/28 10:58:07;;;;;;;7.22;4.43;;;8.00;99.90;;;;;;5114578;28;20604;-54
2021/12/28 11:00:38;;;;;;;11.23;5.10;;;8.00;99.90;;;;;;5114407;28;20199;-54
2021/12/28 11:03:34;;;;;;;5.65;4.47;;;8.10;99.90;;;;;;5114639;28;20201;-54
2021/12/28 11:06:07;;;;;;;13.38;6.57;;;8.10;99.90;;;;;;5114337;28;20254;-54
2021/12/28 11:08:35;;;;;;;8.13;5.30;;;8.10;99.90;;;;;;5114387;28;20251;-53
2021/12/28 11:11:05;;;;;;;7.18;5.13;;;8.10;99.90;;;;;;5113781;28;20215;-54
2021/12/28 11:13:33;;;;;;;8.45;5.63;;;8.10;99.90;;;;;;5114102;28;20199;-56
2021/12/28 11:16:02;;;;;;;6.85;4.95;;;8.10;99.90;;;;;;5114297;28;20203;-54
2021/12/28 11:18:33;;;;;;;7.93;5.13;;;8.10;99.90;;;;;;5113953;28;20219;-53
2021/12/28 11:21:09;;;;;;;6.22;4.20;;;8.20;99.90;;;;;;5114730;28;20176;-54
2021/12/28 11:23:36;;;;;;;9.52;5.00;;;8.20;99.90;;;;;;5113358;28;20200;-53
2021/12/28 11:26:13;;;;;;;10.43;5.10;;;8.20;99.90;;;;;;5113741;28;20237;-55
2021/12/28 11:28:42;;;;;;;7.85;4.55;;;8.30;99.90;;;;;;5113588;28;20607;-53
2021/12/28 11:31:17;;;;;;;4.95;4.32;;;8.30;99.90;;;;;;5113896;28;20587;-54
2021/12/28 11:33:59;;;;;;;8.45;5.20;;;8.30;99.90;;;;;;5113807;28;20194;-53
2021/12/28 11:36:28;;;;;;;6.03;4.65;;;8.30;99.90;;;;;;5113524;28;20195;-54
2021/12/28 11:38:58;;;;;;;10.05;5.20;;;8.40;99.90;;;;;;5113569;28;20700;-54
2021/12/28 11:41:26;;;;;;;5.70;4.57;;;8.40;99.90;;;;;;5113591;28;20642;-54
2021/12/28 11:43:55;;;;;;;6.68;4.60;;;8.40;99.90;;;;;;5113899;28;20242;-55
2021/12/28 11:46:24;;;;;;;9.85;4.80;;;8.40;99.90;;;;;;5113967;28;20200;-54
2021/12/28 11:48:51;;;;;;;5.70;4.10;;;8.50;99.90;;;;;;5113299;28;20215;-54
2021/12/28 11:51:20;;;;;;;6.85;5.78;;;8.50;99.90;;;;;;5113296;28;20216;-53
2021/12/28 11:53:49;;;;;;;5.35;4.10;;;8.50;99.90;;;;;;5113693;28;20223;-53
2021/12/28 11:56:18;;;;;;;5.25;3.78;;;8.60;99.90;;;;;;5113151;28;20195;-54
2021/12/28 11:59:07;;;;;;;9.73;4.70;;;8.60;99.90;;;;;;5113698;28;20223;-53
2021/12/28 12:02:01;;;;;;;7.22;4.10;;;8.70;99.90;;;;;;5113709;28;20227;-55
2021/12/28 12:04:58;;;;;;;5.93;4.35;;;8.70;99.90;;;;;;5113366;28;20656;-55
2021/12/28 12:07:36;;;;;;;4.95;3.90;;;8.80;99.90;;;;;;5113643;28;20237;-54
2021/12/28 12:10:30;;;;;;;6.32;4.68;;;8.90;99.90;;;;;;5113228;28;20639;-54
2021/12/28 12:13:25;;;;;;;6.82;4.32;;;9.00;99.90;;;;;;5112892;28;20187;-53
2021/12/28 12:15:56;;;;;;;4.38;3.97;;;9.00;99.90;;;;;;5113212;28;20195;-55
2021/12/28 12:18:28;;;;;;;7.53;4.15;;;9.00;99.90;;;;;;5113301;28;20223;-55
2021/12/28 12:21:01;;;;;;;5.32;3.70;;;9.10;99.90;;;;;;5113494;28;20588;-54
2021/12/28 12:23:31;;;;;;;5.15;3.53;;;9.10;99.90;;;;;;5114237;28;20533;-54
2021/12/28 12:26:01;;;;;;;4.30;3.40;;;9.20;99.90;;;;;;5113474;28;20204;-54
2021/12/28 12:28:48;;;;;;;4.45;3.75;;;9.10;99.90;;;;;;5112630;28;20239;-56
2021/12/28 12:31:30;;;;;;;5.00;3.63;;;9.20;99.90;;;;;;5113533;28;20347;-55
2021/12/28 12:34:00;;;;;;;6.30;3.20;;;9.20;99.90;;;;;;5117574;28;20190;-55
2021/12/28 12:36:44;;;;;;;5.68;4.30;;;9.20;99.90;;;;;;5116912;28;20219;-57
2021/12/28 12:39:12;;;;;;;5.55;3.75;;;9.20;99.90;;;;;;5117259;28;20651;-56
2021/12/28 12:41:47;;;;;;;5.65;3.83;;;9.20;99.90;;;;;;5117175;28;20667;-56
2021/12/28 12:44:18;;;;;;;5.45;3.50;;;9.20;99.90;;;;;;5117398;28;20201;-55
2021/12/28 12:46:47;;;;;;;6.80;4.10;;;9.20;99.90;;;;;;5117008;28;20207;-56
2021/12/28 12:49:28;;;;;;;4.25;3.33;;;9.20;99.90;;;;;;5117150;28;20307;-56
2021/12/28 12:51:58;;;;;;;6.25;4.05;;;9.20;99.90;;;;;;5117475;28;20230;-55
2021/12/28 12:54:28;;;;;;;6.80;4.50;;;9.20;99.90;;;;;;5117329;28;20179;-55
2021/12/28 12:57:18;;;;;;;5.72;3.63;;;9.20;99.90;;;;;;5116753;28;20210;-55